createdAt,value
2023-01-26T00:00:34.360Z,13.55
2023-01-26T00:03:00.930Z,15.40
2023-01-26T00:05:27.476Z,16.27
2023-01-26T00:07:54.006Z,15.73
2023-01-26T00:10:20.501Z,17.85
2023-01-26T00:12:47.053Z,15.13
2023-01-26T00:15:13.619Z,12.18
2023-01-26T00:17:40.128Z,15.15
2023-01-26T00:20:07.097Z,13.73
2023-01-26T00:22:33.598Z,14.70
2023-01-26T00:25:00.253Z,13.73
2023-01-26T00:27:26.881Z,17.17
2023-01-26T00:29:53.471Z,14.82
2023-01-26T00:32:20.043Z,10.02
2023-01-26T00:34:46.561Z,15.93
2023-01-26T00:37:13.083Z,12.55
2023-01-26T00:39:39.639Z,14.05
2023-01-26T00:42:06.235Z,13.65
2023-01-26T00:44:33.054Z,13.27
2023-01-26T00:46:59.575Z,15.23
2023-01-26T00:49:26.149Z,16.20
2023-01-26T00:51:52.655Z,14.93
2023-01-26T00:54:19.197Z,11.23
2023-01-26T00:56:45.811Z,7.60
2023-01-26T00:59:12.576Z,12.80
2023-01-26T01:01:39.213Z,11.73
2023-01-26T01:04:06.087Z,11.95
2023-01-26T01:06:32.672Z,14.63
2023-01-26T01:08:59.236Z,14.93
2023-01-26T01:11:25.768Z,13.40
2023-01-26T01:13:52.366Z,10.23
2023-01-26T01:16:18.972Z,11.90
2023-01-26T01:18:45.607Z,9.27
2023-01-26T01:21:14.970Z,6.65
2023-01-26T01:23:42.116Z,12.75
2023-01-26T01:26:09.491Z,11.52
2023-01-26T01:28:36.664Z,13.27
2023-01-26T01:31:12.363Z,13.63
2023-01-26T01:33:39.560Z,11.55
2023-01-26T01:36:09.980Z,9.70
2023-01-26T01:38:36.852Z,10.13
2023-01-26T01:41:03.969Z,11.55
2023-01-26T01:43:30.553Z,12.65
2023-01-26T01:45:59.037Z,12.32
2023-01-26T01:48:45.110Z,11.35
2023-01-26T01:51:38.301Z,13.85
2023-01-26T01:54:09.793Z,11.90
2023-01-26T01:56:39.621Z,9.95
2023-01-26T01:59:08.795Z,13.10
2023-01-26T02:01:35.503Z,10.32
2023-01-26T02:04:05.323Z,13.80
2023-01-26T02:06:57.217Z,13.23
2023-01-26T02:09:30.420Z,12.55
2023-01-26T02:11:57.612Z,13.10
2023-01-26T02:14:25.246Z,11.77
2023-01-26T02:16:51.821Z,13.15
2023-01-26T02:19:34.349Z,13.77
2023-01-26T02:22:07.530Z,14.30
2023-01-26T02:24:37.853Z,10.85
2023-01-26T02:27:04.497Z,11.02
2023-01-26T02:29:31.281Z,11.18
2023-01-26T02:31:57.897Z,9.95
2023-01-26T02:34:24.457Z,11.98
2023-01-26T02:36:59.286Z,14.95
2023-01-26T02:39:49.442Z,11.65
2023-01-26T02:42:16.042Z,11.38
2023-01-26T02:44:43.998Z,11.95
2023-01-26T02:47:15.978Z,12.05
2023-01-26T02:49:43.020Z,9.93
2023-01-26T02:52:09.591Z,11.75
2023-01-26T02:54:36.217Z,12.75
2023-01-26T02:57:02.788Z,10.75
2023-01-26T02:59:29.360Z,13.45
2023-01-26T03:01:56.993Z,12.98
2023-01-26T03:04:23.810Z,15.00
2023-01-26T03:06:50.422Z,13.60
2023-01-26T03:09:17.174Z,13.45
2023-01-26T03:11:43.735Z,10.57
2023-01-26T03:14:14.808Z,12.35
2023-01-26T03:16:41.707Z,12.38
2023-01-26T03:19:11.600Z,13.10
2023-01-26T03:21:38.151Z,13.07
2023-01-26T03:24:05.164Z,14.32
2023-01-26T03:26:32.033Z,13.00
2023-01-26T03:28:58.620Z,12.63
2023-01-26T03:31:25.375Z,12.60
2023-01-26T03:33:51.950Z,11.57
2023-01-26T03:36:18.558Z,12.35
2023-01-26T03:38:45.071Z,10.25
2023-01-26T03:41:11.857Z,11.98
2023-01-26T03:43:38.462Z,11.45
2023-01-26T03:46:06.657Z,13.73
2023-01-26T03:48:33.198Z,11.02
2023-01-26T03:50:59.722Z,13.23
2023-01-26T03:53:26.292Z,12.75
2023-01-26T03:55:52.816Z,13.05
2023-01-26T03:58:19.355Z,12.60
2023-01-26T04:00:49.261Z,11.55
2023-01-26T04:03:15.910Z,9.85
2023-01-26T04:05:42.467Z,14.27
2023-01-26T04:08:09.042Z,12.38
2023-01-26T04:10:35.604Z,13.23
2023-01-26T04:13:02.182Z,10.43
2023-01-26T04:15:28.780Z,12.38
2023-01-26T04:17:55.357Z,12.18
2023-01-26T04:20:21.907Z,11.98
2023-01-26T04:22:48.456Z,12.35
2023-01-26T04:25:34.987Z,12.52
2023-01-26T04:28:01.561Z,12.77
2023-01-26T04:30:28.126Z,13.63
2023-01-26T04:32:54.755Z,11.05
2023-01-26T04:35:21.376Z,13.52
2023-01-26T04:37:48.062Z,12.40
2023-01-26T04:40:14.846Z,11.57
2023-01-26T04:42:41.498Z,12.43
2023-01-26T04:45:09.619Z,13.63
2023-01-26T04:47:36.199Z,12.07
2023-01-26T04:50:03.255Z,13.48
2023-01-26T04:52:29.776Z,11.93
2023-01-26T04:54:56.318Z,14.30
2023-01-26T04:57:23.109Z,13.82
2023-01-26T04:59:49.848Z,14.88
2023-01-26T05:02:16.375Z,14.50
2023-01-26T05:04:43.114Z,13.85
2023-01-26T05:07:09.677Z,12.52
2023-01-26T05:09:36.173Z,12.15
2023-01-26T05:12:02.696Z,11.65
2023-01-26T05:14:29.239Z,15.57
2023-01-26T05:16:55.735Z,15.13
2023-01-26T05:19:22.287Z,15.35
2023-01-26T05:21:48.793Z,14.50
2023-01-26T05:24:15.343Z,14.88
2023-01-26T05:26:41.929Z,15.85
2023-01-26T05:29:08.464Z,15.13
2023-01-26T05:31:35.074Z,15.20
2023-01-26T05:34:01.610Z,13.52
2023-01-26T05:36:28.177Z,14.20
2023-01-26T05:38:54.753Z,13.25
2023-01-26T05:41:21.387Z,14.43
2023-01-26T05:43:47.873Z,14.18
2023-01-26T05:46:14.488Z,14.93
2023-01-26T05:48:41.044Z,14.32
2023-01-26T05:51:07.605Z,14.60
2023-01-26T05:53:34.114Z,14.32
2023-01-26T05:56:00.675Z,13.30
2023-01-26T05:58:27.233Z,16.52
2023-01-26T06:00:53.883Z,15.60
2023-01-26T06:03:20.420Z,13.75
2023-01-26T06:05:53.107Z,13.10
2023-01-26T06:08:19.644Z,11.77
2023-01-26T06:10:46.194Z,14.60
2023-01-26T06:13:12.700Z,14.82
2023-01-26T06:15:39.202Z,15.07
2023-01-26T06:18:05.717Z,13.85
2023-01-26T06:20:32.208Z,13.15
2023-01-26T06:23:01.718Z,13.98
2023-01-26T06:25:28.239Z,12.88
2023-01-26T06:27:58.539Z,16.15
2023-01-26T06:30:25.088Z,15.73
2023-01-26T06:32:51.685Z,14.60
2023-01-26T06:35:18.241Z,15.02
2023-01-26T06:37:44.801Z,13.93
2023-01-26T06:40:12.335Z,14.00
2023-01-26T06:42:39.000Z,15.15
2023-01-26T06:45:06.033Z,13.57
2023-01-26T06:47:33.716Z,16.00
2023-01-26T06:50:01.253Z,14.50
2023-01-26T06:52:31.667Z,14.10
2023-01-26T06:57:28.122Z,13.05
2023-01-26T06:59:54.727Z,13.68
2023-01-26T07:02:22.678Z,14.30
2023-01-26T07:04:50.595Z,11.93
2023-01-26T07:07:17.245Z,14.27
2023-01-26T07:09:44.408Z,15.35
2023-01-26T07:12:10.985Z,14.52
2023-01-26T07:14:37.537Z,15.38
2023-01-26T07:17:04.214Z,14.52
2023-01-26T07:19:30.795Z,13.32
2023-01-26T07:21:57.355Z,13.82
2023-01-26T07:24:24.454Z,14.20
2023-01-26T07:26:51.057Z,14.15
2023-01-26T07:29:17.627Z,13.75
2023-01-26T07:31:44.163Z,12.38
2023-01-26T07:34:11.368Z,12.40
2023-01-26T07:36:38.055Z,14.73
2023-01-26T07:39:08.106Z,13.27
2023-01-26T07:41:35.288Z,14.98
2023-01-26T07:44:02.088Z,14.68
2023-01-26T07:46:28.868Z,13.50
2023-01-26T07:48:55.810Z,13.10
2023-01-26T07:51:22.328Z,12.75
2023-01-26T07:53:48.847Z,12.88
2023-01-26T07:56:16.982Z,14.23
2023-01-26T07:58:43.530Z,14.30
2023-01-26T08:01:13.330Z,15.10
2023-01-26T08:03:40.538Z,14.23
2023-01-26T08:06:10.808Z,12.88
2023-01-26T08:08:38.466Z,13.60
2023-01-26T08:11:05.187Z,13.23
2023-01-26T08:13:35.818Z,12.80
2023-01-26T08:16:05.184Z,12.70
2023-01-26T08:18:32.095Z,13.13
2023-01-26T08:20:59.462Z,14.20
2023-01-26T08:23:26.354Z,12.50
2023-01-26T08:25:53.091Z,14.45
2023-01-26T08:28:21.188Z,14.93
2023-01-26T08:30:47.936Z,15.60
2023-01-26T08:33:14.652Z,14.63
2023-01-26T08:35:41.181Z,12.55
2023-01-26T08:38:07.843Z,12.75
2023-01-26T08:40:34.437Z,15.55
2023-01-26T08:43:01.719Z,12.18
2023-01-26T08:45:30.803Z,11.05
2023-01-26T08:47:57.525Z,14.05
2023-01-26T08:50:25.378Z,11.63
2023-01-26T08:52:51.910Z,10.20
2023-01-26T08:55:18.457Z,14.05
2023-01-26T08:57:45.035Z,10.63
2023-01-26T09:00:12.609Z,12.05
2023-01-26T09:02:39.438Z,12.70
2023-01-26T09:05:06.574Z,13.82
2023-01-26T09:07:33.141Z,12.20
2023-01-26T09:09:59.645Z,13.13
2023-01-26T09:12:26.157Z,11.38
2023-01-26T09:14:52.710Z,12.98
2023-01-26T09:17:19.245Z,11.68
2023-01-26T09:19:45.955Z,12.70
2023-01-26T09:22:12.452Z,12.13
2023-01-26T09:24:39.031Z,12.65
2023-01-26T09:27:05.606Z,10.02
2023-01-26T09:29:32.263Z,11.90
2023-01-26T09:31:59.012Z,12.55
2023-01-26T09:34:25.659Z,11.68
2023-01-26T09:36:52.360Z,10.30
2023-01-26T09:39:18.912Z,11.38
2023-01-26T09:42:00.638Z,11.70
2023-01-26T09:44:30.832Z,9.55
2023-01-26T09:47:35.983Z,12.70
2023-01-26T09:50:17.890Z,10.45
2023-01-26T09:52:59.194Z,11.20
2023-01-26T09:55:27.022Z,9.50
2023-01-26T09:57:59.316Z,12.32
2023-01-26T10:00:43.446Z,12.40
2023-01-26T10:03:09.924Z,14.35
2023-01-26T10:05:52.161Z,13.80
2023-01-26T10:11:12.959Z,13.45
2023-01-26T10:13:45.370Z,11.23
2023-01-26T10:16:12.792Z,13.77
2023-01-26T10:19:00.726Z,12.68
2023-01-26T10:21:33.095Z,12.80
2023-01-26T10:24:02.041Z,11.70
2023-01-26T10:26:36.510Z,13.30
2023-01-26T10:29:03.884Z,12.93
2023-01-26T10:31:32.930Z,10.50
2023-01-26T10:34:16.994Z,11.23
2023-01-26T10:36:47.104Z,11.82
2023-01-26T10:39:16.304Z,11.52
2023-01-26T10:42:00.403Z,14.70
2023-01-26T10:44:35.275Z,12.63
2023-01-26T10:47:17.386Z,11.02
2023-01-26T10:49:44.303Z,11.77
2023-01-26T10:52:22.567Z,10.30
2023-01-26T10:55:09.323Z,12.15
2023-01-26T10:57:39.404Z,14.77
2023-01-26T11:00:22.037Z,14.90
2023-01-26T11:03:06.497Z,10.38
2023-01-26T11:05:33.355Z,11.27
2023-01-26T11:07:59.975Z,12.27
2023-01-26T11:10:34.699Z,11.38
2023-01-26T11:13:22.243Z,9.77
2023-01-26T11:16:05.545Z,9.88
2023-01-26T11:18:51.321Z,10.23
2023-01-26T11:21:30.608Z,9.80
2023-01-26T11:24:29.295Z,10.57
2023-01-26T11:27:20.320Z,7.70
2023-01-26T11:30:21.784Z,8.68
2023-01-26T11:33:00.691Z,8.23
2023-01-26T11:35:51.501Z,10.00
2023-01-26T11:38:41.159Z,8.23
2023-01-26T11:41:35.452Z,10.15
2023-01-26T11:44:25.027Z,6.88
2023-01-26T11:47:08.924Z,11.55
2023-01-26T11:49:53.590Z,9.30
2023-01-26T11:53:04.092Z,8.63
2023-01-26T11:55:54.483Z,8.30
2023-01-26T11:58:35.057Z,7.10
2023-01-26T12:01:16.477Z,8.95
2023-01-26T12:03:52.608Z,5.57
2023-01-26T12:06:36.150Z,6.93
2023-01-26T12:09:13.566Z,9.52
2023-01-26T12:11:51.783Z,6.80
2023-01-26T12:14:25.793Z,6.63
2023-01-26T12:17:17.233Z,7.13
2023-01-26T12:19:51.537Z,8.20
2023-01-26T12:22:38.303Z,7.72
2023-01-26T12:25:37.037Z,6.25
2023-01-26T12:28:31.339Z,6.25
2023-01-26T12:31:08.070Z,5.20
2023-01-26T12:33:35.883Z,5.40
2023-01-26T12:36:08.290Z,4.55
2023-01-26T12:39:00.572Z,5.95
2023-01-26T12:41:55.391Z,5.45
2023-01-26T12:44:40.949Z,4.72
2023-01-26T12:47:19.435Z,6.32
2023-01-26T12:49:49.896Z,5.72
2023-01-26T12:52:25.963Z,6.13
2023-01-26T12:55:01.629Z,5.63
2023-01-26T12:57:39.921Z,6.75
2023-01-26T13:00:22.291Z,4.97
2023-01-26T13:02:59.771Z,4.72
2023-01-26T13:05:32.706Z,5.22
2023-01-26T13:08:31.353Z,5.13
2023-01-26T13:11:00.379Z,3.95
2023-01-26T13:13:49.114Z,4.95
2023-01-26T13:16:15.687Z,4.55
2023-01-26T13:18:49.959Z,3.92
2023-01-26T13:21:49.080Z,4.45
2023-01-26T13:24:18.487Z,3.88
2023-01-26T13:26:57.197Z,2.88
2023-01-26T13:29:26.837Z,2.88
2023-01-26T13:31:58.411Z,3.47
2023-01-26T13:35:05.885Z,3.47
2023-01-26T13:37:53.650Z,3.22
2023-01-26T13:40:24.754Z,3.08
2023-01-26T13:43:06.016Z,3.88
2023-01-26T13:45:43.687Z,4.70
2023-01-26T13:48:34.853Z,3.47
2023-01-26T13:51:03.292Z,3.33
2023-01-26T13:53:34.528Z,5.30
2023-01-26T13:56:03.701Z,4.32
2023-01-26T13:58:30.283Z,4.50
2023-01-26T14:01:06.641Z,5.40
2023-01-26T14:03:33.310Z,5.18
2023-01-26T14:06:05.839Z,5.18
2023-01-26T14:08:33.508Z,5.28
2023-01-26T14:11:02.541Z,7.18
2023-01-26T14:13:35.800Z,7.45
2023-01-26T14:16:07.103Z,6.18
2023-01-26T14:18:33.961Z,6.68
2023-01-26T14:21:17.049Z,7.07
2023-01-26T14:23:43.711Z,8.27
2023-01-26T14:26:23.795Z,7.50
2023-01-26T14:28:51.184Z,7.65
2023-01-26T14:31:23.781Z,7.90
2023-01-26T14:33:53.316Z,7.20
2023-01-26T14:36:21.391Z,6.68
2023-01-26T14:38:50.728Z,7.95
2023-01-26T14:41:25.154Z,9.60
2023-01-26T14:43:57.111Z,8.75
2023-01-26T14:46:36.259Z,7.80
2023-01-26T14:49:16.091Z,8.77
2023-01-26T14:51:45.418Z,9.13
2023-01-26T14:54:30.772Z,8.13
2023-01-26T14:56:59.448Z,7.65
2023-01-26T14:59:36.694Z,8.48
2023-01-26T15:02:22.149Z,8.60
2023-01-26T15:04:59.725Z,10.18
2023-01-26T15:07:42.314Z,9.55
2023-01-26T15:10:25.588Z,9.70
2023-01-26T15:12:59.200Z,8.70
2023-01-26T15:15:30.897Z,10.40
2023-01-26T15:18:02.353Z,11.55
2023-01-26T15:20:28.811Z,10.00
2023-01-26T15:22:55.430Z,12.00
2023-01-26T15:25:27.357Z,9.73
2023-01-26T15:27:58.650Z,10.07
2023-01-26T15:30:29.358Z,9.93
2023-01-26T15:32:56.168Z,8.70
2023-01-26T15:35:31.893Z,9.73
2023-01-26T15:38:09.210Z,11.50
2023-01-26T15:40:36.301Z,10.35
2023-01-26T15:43:15.528Z,9.13
2023-01-26T15:45:53.818Z,10.43
2023-01-26T15:48:21.105Z,9.50
2023-01-26T15:50:48.202Z,9.82
2023-01-26T15:53:16.691Z,11.77
2023-01-26T15:55:44.703Z,10.65
2023-01-26T15:58:11.227Z,12.07
2023-01-26T16:00:38.644Z,12.07
2023-01-26T16:03:11.356Z,12.32
2023-01-26T16:05:37.905Z,8.80
2023-01-26T16:08:04.555Z,10.32
2023-01-26T16:10:31.076Z,9.70
2023-01-26T16:12:57.614Z,11.30
2023-01-26T16:15:24.194Z,9.57
2023-01-26T16:17:50.777Z,9.18
2023-01-26T16:20:18.253Z,10.98
2023-01-26T16:22:44.915Z,9.32
2023-01-26T16:25:22.647Z,10.30
2023-01-26T16:27:49.496Z,10.05
2023-01-26T16:30:17.042Z,8.45
2023-01-26T16:32:43.586Z,10.00
2023-01-26T16:35:15.310Z,10.15
2023-01-26T16:37:42.819Z,11.15
2023-01-26T16:40:10.941Z,10.25
2023-01-26T16:42:44.967Z,9.98
2023-01-26T16:45:16.447Z,9.15
2023-01-26T16:47:43.192Z,11.05
2023-01-26T16:50:10.501Z,10.48
2023-01-26T16:52:37.308Z,11.43
2023-01-26T16:55:04.133Z,12.10
2023-01-26T16:57:30.697Z,10.40
2023-01-26T16:59:57.228Z,11.13
2023-01-26T17:02:32.728Z,9.98
2023-01-26T17:04:59.338Z,10.55
2023-01-26T17:07:25.884Z,11.30
2023-01-26T17:09:52.542Z,11.18
2023-01-26T17:12:19.076Z,11.75
2023-01-26T17:14:45.663Z,11.50
2023-01-26T17:17:12.337Z,11.32
2023-01-26T17:19:38.905Z,11.40
2023-01-26T17:22:06.234Z,12.65
2023-01-26T17:24:32.865Z,10.30
2023-01-26T17:26:59.398Z,11.23
2023-01-26T17:29:25.953Z,11.52
2023-01-26T17:31:52.538Z,11.70
2023-01-26T17:34:19.134Z,12.40
2023-01-26T17:36:46.115Z,12.27
2023-01-26T17:39:12.821Z,12.13
2023-01-26T17:41:39.376Z,12.73
2023-01-26T17:44:05.924Z,21.20
2023-01-26T17:46:32.591Z,14.43
2023-01-26T17:48:59.173Z,22.70
2023-01-26T17:51:25.871Z,20.83
2023-01-26T17:53:52.460Z,13.80
2023-01-26T17:56:21.209Z,10.30
2023-01-26T17:58:50.512Z,13.68
2023-01-26T18:01:17.820Z,14.27
2023-01-26T18:03:44.439Z,11.98
2023-01-26T18:06:11.555Z,11.80
2023-01-26T18:08:41.760Z,14.13
2023-01-26T18:11:12.580Z,15.32
2023-01-26T18:13:39.984Z,13.77
2023-01-26T18:16:07.963Z,13.45
2023-01-26T18:18:37.554Z,14.25
2023-01-26T18:21:20.331Z,13.75
2023-01-26T18:23:53.891Z,11.95
2023-01-26T18:26:23.522Z,14.10
2023-01-26T18:28:54.315Z,13.50
2023-01-26T18:31:23.276Z,13.35
2023-01-26T18:33:50.423Z,12.50
2023-01-26T18:36:19.333Z,13.25
2023-01-26T18:38:58.531Z,14.00
2023-01-26T18:41:29.248Z,20.45
2023-01-26T18:44:08.976Z,13.98
2023-01-26T18:46:36.149Z,11.57
2023-01-26T18:49:03.524Z,10.90
2023-01-26T18:51:33.096Z,14.88
2023-01-26T18:54:01.042Z,12.60
2023-01-26T18:56:27.718Z,13.43
2023-01-26T18:58:54.767Z,11.70
2023-01-26T19:01:22.478Z,12.70
2023-01-26T19:03:49.906Z,14.48
2023-01-26T19:06:17.077Z,13.32
2023-01-26T19:08:45.172Z,14.15
2023-01-26T19:11:11.903Z,19.65
2023-01-26T19:13:38.479Z,20.05
2023-01-26T19:16:07.378Z,16.98
2023-01-26T19:18:35.171Z,13.75
2023-01-26T19:21:03.980Z,17.25
2023-01-26T19:23:31.276Z,15.68
2023-01-26T19:25:58.203Z,14.98
2023-01-26T19:28:24.833Z,15.70
2023-01-26T19:30:51.436Z,14.63
2023-01-26T19:33:17.982Z,15.93
2023-01-26T19:35:44.530Z,14.77
2023-01-26T19:38:11.173Z,15.95
2023-01-26T19:40:37.808Z,14.00
2023-01-26T19:43:04.365Z,17.88
2023-01-26T19:45:31.156Z,15.52
2023-01-26T19:47:58.311Z,16.63
2023-01-26T19:50:24.877Z,15.55
2023-01-26T19:52:51.363Z,14.57
2023-01-26T19:55:17.891Z,13.50
2023-01-26T19:57:44.386Z,14.27
2023-01-26T20:00:11.604Z,14.73
2023-01-26T20:02:38.217Z,13.50
2023-01-26T20:05:05.817Z,15.43
2023-01-26T20:07:32.713Z,14.43
2023-01-26T20:09:59.325Z,13.82
2023-01-26T20:12:25.844Z,13.35
2023-01-26T20:14:52.376Z,11.60
2023-01-26T20:17:19.180Z,11.80
2023-01-26T20:19:45.747Z,10.82
2023-01-26T20:22:12.835Z,11.93
2023-01-26T20:24:39.664Z,11.48
2023-01-26T20:27:07.128Z,10.82
2023-01-26T20:29:35.542Z,10.82
2023-01-26T20:32:02.237Z,11.07
2023-01-26T20:34:28.823Z,9.80
2023-01-26T20:36:55.401Z,7.53
2023-01-26T20:39:21.992Z,8.48
2023-01-26T20:41:48.507Z,8.55
2023-01-26T20:44:15.171Z,8.25
2023-01-26T20:46:42.888Z,10.02
2023-01-26T20:49:15.174Z,9.38
2023-01-26T20:51:43.201Z,9.38
2023-01-26T20:54:12.899Z,9.77
2023-01-26T20:56:39.584Z,9.52
2023-01-26T20:59:07.253Z,9.35
2023-01-26T21:01:34.849Z,8.93
2023-01-26T21:04:01.879Z,9.20
2023-01-26T21:06:29.418Z,9.25
2023-01-26T21:08:57.924Z,9.35
2023-01-26T21:11:27.039Z,10.27
2023-01-26T21:13:57.648Z,8.70
2023-01-26T21:16:24.910Z,9.00
2023-01-26T21:18:51.735Z,8.98
2023-01-26T21:21:18.826Z,8.85
2023-01-26T21:23:46.145Z,7.53
2023-01-26T21:26:15.139Z,9.30
2023-01-26T21:28:41.739Z,8.63
2023-01-26T21:31:15.215Z,8.73
2023-01-26T21:33:44.205Z,8.27
2023-01-26T21:36:13.003Z,8.05
2023-01-26T21:38:42.814Z,8.35
2023-01-26T21:41:15.277Z,8.40
2023-01-26T21:43:41.811Z,7.78
2023-01-26T21:46:08.371Z,8.38
2023-01-26T21:48:34.995Z,7.10
2023-01-26T21:51:02.180Z,7.50
2023-01-26T21:53:28.750Z,6.63
2023-01-26T21:55:55.278Z,6.15
2023-01-26T21:58:21.892Z,6.97
2023-01-26T22:00:48.464Z,7.35
2023-01-26T22:03:15.023Z,6.53
2023-01-26T22:05:41.505Z,5.72
2023-01-26T22:08:08.746Z,5.45
2023-01-26T22:10:35.419Z,6.40
2023-01-26T22:13:01.964Z,6.57
2023-01-26T22:15:28.474Z,5.65
2023-01-26T22:17:55.032Z,5.63
2023-01-26T22:20:21.592Z,5.82
2023-01-26T22:22:48.139Z,5.65
2023-01-26T22:25:14.733Z,4.30
2023-01-26T22:27:41.263Z,4.13
2023-01-26T22:30:08.638Z,4.28
2023-01-26T22:32:35.196Z,4.13
2023-01-26T22:35:01.808Z,5.05
2023-01-26T22:37:28.312Z,5.00
2023-01-26T22:39:54.890Z,4.32
2023-01-26T22:42:21.454Z,3.88
2023-01-26T22:44:48.048Z,4.55
2023-01-26T22:47:14.591Z,4.28
2023-01-26T22:49:41.362Z,4.25
2023-01-26T22:52:07.879Z,4.53
2023-01-26T22:54:34.450Z,4.10
2023-01-26T22:57:00.997Z,4.43
2023-01-26T22:59:27.591Z,3.72
2023-01-26T23:01:54.123Z,4.20
2023-01-26T23:04:20.692Z,3.70
2023-01-26T23:06:47.271Z,3.42
2023-01-26T23:09:13.853Z,4.40
2023-01-26T23:11:40.401Z,3.60
2023-01-26T23:14:06.963Z,3.65
2023-01-26T23:16:33.634Z,3.97
2023-01-26T23:19:00.361Z,3.80
2023-01-26T23:21:28.159Z,3.15
2023-01-26T23:23:54.915Z,3.50
2023-01-26T23:26:22.144Z,3.80
2023-01-26T23:28:48.848Z,3.08
2023-01-26T23:31:16.589Z,3.45
2023-01-26T23:33:43.676Z,2.67
2023-01-26T23:36:12.678Z,3.05
2023-01-26T23:38:39.458Z,2.83
2023-01-26T23:41:06.299Z,2.25
2023-01-26T23:43:33.045Z,2.42
2023-01-26T23:45:59.697Z,3.13
2023-01-26T23:48:26.764Z,2.75
2023-01-26T23:51:01.582Z,2.10
2023-01-26T23:53:29.027Z,2.63
2023-01-26T23:55:57.231Z,2.63
2023-01-26T23:58:23.909Z,2.00
